KEYWTNCM

Guest
Details From KEYW - Key West Intl
To TNCM - St Maarten - Princess Juliana Intl
Flight Number -
Tags Generated
Created
Modified
Stats Distance 1,113 nm / 2,062 km
Max Altitude 0 ft / 0 m
Waypoints 4
Social Downloads 0
Likes 0
Share VATSIM

Download

Looking for another format? Having issues loading an existing format? Contact us
Advertisement - Login to hide

Notes

Generated

Route

KEYW SEBUG PJM31 TNCM

ID Type Via Altitude Latitude Longitude Leg Dist Tot Dist Heading (true) Name
O KEYW APT - 0 ft / 0 m 24.55605˚ -81.76677˚ - 0 nm - -
SEBUG FIX - 0 ft / 0 m 20.89772˚ -70.24211˚ 674 nm 674 nm 107° / 111° -
PJM31 FIX - 0 ft / 0 m 18.10698˚ -63.21744˚ 431 nm 1106 nm 112° / 114° -
O TNCM APT - 0 ft / 0 m 18.03937˚ -63.11961˚ 6 nm 1113 nm 126° / 126° -

Altitude Profile

Advertisement - Login to hide

Weather


0- 5 10 15 20 25 30 35+ Temperature / ° C

Clouds and Precipitation
Forecast for 2017-12-17 00:00 UTC. Updated an hour ago

Ground ~20,000 ft ~40,000 ft Winds

KEYW

Details ICAO KEYW (EYW)
Name Key West Intl
Region United States
Timezone America/New_York (UTC-5.0)
Stats Elevation 2 ft / 1 m (AMSL)
Location 24.556124° -81.759546°
Runways 1
Magnetic Variation 5.546° W

METAR

KEYW 162153Z 06007G15KT 10SM CLR 24/19 A3013 RMK AO2 SLP204 T02440189

Decode

TAF

TAF KEYW 161727Z 1618/1718 06012G19KT P6SM SCT250 FM170000 08013G21KT P6SM FEW020 SCT040 BKN250

Decode

Departure Runways

ID Width Length Bearing (true) Bearing (mag) Surface Threshold Offset Overrun Length
09 100 ft / 30 m 4,794 ft / 1,461 m 89.38° 94.93° Asphalt 151 ft / 46 m 0 ft / 0 m
27 100 ft / 30 m 4,794 ft / 1,461 m 269.39° 274.94° Asphalt 151 ft / 46 m 0 ft / 0 m

TNCM

Details ICAO TNCM (SXM)
Name St Maarten - Princess Juliana Intl
Region Caribbean Netherlands, Aruba, Curaçao, Sint Maarten
Timezone Unknown (UTC+0.0)
Stats Elevation 12 ft / 4 m (AMSL)
Location 18.040889° -63.108974°
Runways 1
Magnetic Variation 14.325° W

METAR

TNCM 162200Z 05012KT 9999 SCT018 27/21 Q1017 A3003 NOSIG

Decode

TAF

TAF TNCM 161720Z 1618/1718 07014G22KT P6SM VCSH FEW022 SCT040 FM162300 07012KT P6SM SCT020 SCT050 FM170300 06014KT P6SM VCSH SCT018 BKN050 FM171450 08016KT P6SM SCT022 SCT050

Decode

Destination Runways

ID Width Length Bearing (true) Bearing (mag) Surface Threshold Offset Overrun Length
10 148 ft / 45 m 7,464 ft / 2,275 m 81.43° 95.76° Asphalt 0 ft / 0 m 151 ft / 46 m
28 148 ft / 45 m 7,464 ft / 2,275 m 261.44° 275.77° Asphalt 397 ft / 121 m 0 ft / 0 m

Popular Alternatives